Algona, IA

8:12 AM CST on December 06, 2016 (GMT -0600)
Algona Municipal | | Change Station

Elev 1220 ft 43.08 °N, 94.27 °W | Updated 17 minutes ago

Scattered Clouds
Scattered Clouds
19 °F
Feels Like 5 °F
N
16
Wind Variable Wind from West
Gusts 24 mph

Today
High -- | Low -- °F
--% Chance of Precip.
Yesterday
High -- | Low -- °F
Precip. -- in
Pressure 29.84 in
Visibility 10.0 miles
Clouds Scattered Clouds 1700 ft
Windchill 5 °F
Dew Point 16 °F
Humidity 86%
Rainfall 0.00 in
Snow Depth Not available.
7:34 AM 4:41 PM
Waxing Crescent, 42% visible
METAR KAXA 061355Z AUTO 27014G21KT 10SM SCT017 M07/M09 A2984 RMK AO2
Pressure 29.84 in
Visibility 10.0 miles
Clouds Scattered Clouds 1700 ft
Windchill 5 °F
Dew Point 16 °F
Humidity 86%
Rainfall 0.00 in
Snow Depth Not available.
7:34 AM 4:41 PM
Waxing Crescent, 42% visible
METAR KAXA 061355Z AUTO 27014G21KT 10SM SCT017 M07/M09 A2984 RMK AO2

10-Day Weather Forecast

Almanac

Astronomy

Dec. 06, 2016 Rise Set
Actual Time
Civil Twilight
Nautical Twilight
Astronomical Twilight
Moon
Length of Visible Light
Length of Day
Tomorrow will be .
, % of the Moon is Illuminated

Today's Extremes

State Highs State Lows

Community

WunderPhotos

Upload Photos

1,955,949 photos uploaded!

WunderBlog® & News

Nearby

Air Quality

  Air Quality AQ Index Pollutant
Not available.

Snow Depth

Station Depth Elevation

Earthquake Activity

City Distance Mag. Time & Date
Minimum magnitude displayed is 2.5.

Coastal Water Temperatures

Place Temperature

Stations

Nearby Weather Stations

Station Location Temp. Windchill Dew Point Humidity Wind Precip. Elev Updated Type
                   

Watches & Warnings

There are currently no watches in effect.